sensor_id;sensor_type;location;lat;lon;timestamp;temperature;humidity
23681;DHT22;62915;50.832;4.462;2022-09-13T00:00:17;21.00;99.90
23681;DHT22;62915;50.832;4.462;2022-09-13T00:02:43;20.90;99.90
23681;DHT22;62915;50.832;4.462;2022-09-13T00:05:09;20.90;99.90
23681;DHT22;62915;50.832;4.462;2022-09-13T00:07:34;20.90;99.90
23681;DHT22;62915;50.832;4.462;2022-09-13T00:10:00;20.90;99.90
23681;DHT22;62915;50.832;4.462;2022-09-13T00:12:26;20.90;99.90
23681;DHT22;62915;50.832;4.462;2022-09-13T00:14:51;20.90;99.90
23681;DHT22;62915;50.832;4.462;2022-09-13T00:17:17;20.90;99.90
23681;DHT22;62915;50.832;4.462;2022-09-13T00:19:43;20.80;99.90
23681;DHT22;62915;50.832;4.462;2022-09-13T00:22:09;20.80;99.90
23681;DHT22;62915;50.832;4.462;2022-09-13T00:24:34;20.90;99.90
23681;DHT22;62915;50.832;4.462;2022-09-13T00:27:01;20.80;99.90
23681;DHT22;62915;50.832;4.462;2022-09-13T00:29:27;20.80;99.90
23681;DHT22;62915;50.832;4.462;2022-09-13T00:31:53;20.90;99.90
23681;DHT22;62915;50.832;4.462;2022-09-13T00:34:19;20.80;99.90
23681;DHT22;62915;50.832;4.462;2022-09-13T00:36:48;20.90;99.90
23681;DHT22;62915;50.832;4.462;2022-09-13T00:39:13;20.80;99.90
23681;DHT22;62915;50.832;4.462;2022-09-13T00:41:39;20.90;99.90
23681;DHT22;62915;50.832;4.462;2022-09-13T00:47:11;20.90;99.90
23681;DHT22;62915;50.832;4.462;2022-09-13T00:49:40;20.90;99.90
23681;DHT22;62915;50.832;4.462;2022-09-13T00:52:13;20.90;99.90
23681;DHT22;62915;50.832;4.462;2022-09-13T00:54:45;20.90;99.90
23681;DHT22;62915;50.832;4.462;2022-09-13T00:57:13;21.00;99.90
23681;DHT22;62915;50.832;4.462;2022-09-13T00:59:58;21.00;99.90
23681;DHT22;62915;50.832;4.462;2022-09-13T01:02:28;21.10;99.90
23681;DHT22;62915;50.832;4.462;2022-09-13T01:04:54;21.10;99.90
23681;DHT22;62915;50.832;4.462;2022-09-13T01:07:20;21.10;99.90
23681;DHT22;62915;50.832;4.462;2022-09-13T01:09:50;21.10;99.90
23681;DHT22;62915;50.832;4.462;2022-09-13T01:12:30;21.00;99.90
23681;DHT22;62915;50.832;4.462;2022-09-13T01:14:59;21.00;99.90
23681;DHT22;62915;50.832;4.462;2022-09-13T01:17:27;21.00;99.90
23681;DHT22;62915;50.832;4.462;2022-09-13T01:19:55;21.10;99.90
23681;DHT22;62915;50.832;4.462;2022-09-13T01:30:21;21.10;99.90
23681;DHT22;62915;50.832;4.462;2022-09-13T01:32:55;21.20;99.90
23681;DHT22;62915;50.832;4.462;2022-09-13T01:36:06;21.20;99.90
23681;DHT22;62915;50.832;4.462;2022-09-13T01:38:41;21.20;99.90
23681;DHT22;62915;50.832;4.462;2022-09-13T01:41:38;21.20;99.90
23681;DHT22;62915;50.832;4.462;2022-09-13T01:44:23;21.20;99.90
23681;DHT22;62915;50.832;4.462;2022-09-13T01:49:46;21.10;99.90
23681;DHT22;62915;50.832;4.462;2022-09-13T01:52:23;21.10;99.90
23681;DHT22;62915;50.832;4.462;2022-09-13T01:55:06;21.10;99.90
23681;DHT22;62915;50.832;4.462;2022-09-13T01:57:46;21.20;99.90
23681;DHT22;62915;50.832;4.462;2022-09-13T02:00:16;21.20;99.90
23681;DHT22;62915;50.832;4.462;2022-09-13T02:03:04;21.20;99.90
23681;DHT22;62915;50.832;4.462;2022-09-13T02:05:54;21.30;99.90
23681;DHT22;62915;50.832;4.462;2022-09-13T02:08:25;21.20;99.90
23681;DHT22;62915;50.832;4.462;2022-09-13T02:11:01;21.30;99.90
23681;DHT22;62915;50.832;4.462;2022-09-13T02:13:34;21.20;99.90
23681;DHT22;62915;50.832;4.462;2022-09-13T02:16:09;21.30;99.90
23681;DHT22;62915;50.832;4.462;2022-09-13T02:18:40;21.20;99.90
23681;DHT22;62915;50.832;4.462;2022-09-13T02:21:12;21.20;99.90
23681;DHT22;62915;50.832;4.462;2022-09-13T02:23:52;21.20;99.90
23681;DHT22;62915;50.832;4.462;2022-09-13T02:26:20;21.20;99.90
23681;DHT22;62915;50.832;4.462;2022-09-13T02:28:49;21.20;99.90
23681;DHT22;62915;50.832;4.462;2022-09-13T02:31:23;21.20;99.90
23681;DHT22;62915;50.832;4.462;2022-09-13T02:33:59;21.20;99.90
23681;DHT22;62915;50.832;4.462;2022-09-13T02:36:31;21.10;99.90
23681;DHT22;62915;50.832;4.462;2022-09-13T02:39:15;21.10;99.90
23681;DHT22;62915;50.832;4.462;2022-09-13T02:44:23;21.00;99.90
23681;DHT22;62915;50.832;4.462;2022-09-13T03:01:01;20.90;99.90
23681;DHT22;62915;50.832;4.462;2022-09-13T03:03:26;20.90;99.90
23681;DHT22;62915;50.832;4.462;2022-09-13T03:05:52;20.80;99.90
23681;DHT22;62915;50.832;4.462;2022-09-13T03:08:20;20.80;99.90
23681;DHT22;62915;50.832;4.462;2022-09-13T03:11:12;20.80;99.90
23681;DHT22;62915;50.832;4.462;2022-09-13T03:14:10;20.80;99.90
23681;DHT22;62915;50.832;4.462;2022-09-13T03:20:02;20.90;99.90
23681;DHT22;62915;50.832;4.462;2022-09-13T03:30:12;20.80;99.90
23681;DHT22;62915;50.832;4.462;2022-09-13T03:35:55;20.80;99.90
23681;DHT22;62915;50.832;4.462;2022-09-13T03:38:54;20.80;99.90
23681;DHT22;62915;50.832;4.462;2022-09-13T03:41:26;20.80;99.90
23681;DHT22;62915;50.832;4.462;2022-09-13T03:44:05;20.80;99.90
23681;DHT22;62915;50.832;4.462;2022-09-13T03:46:35;20.80;99.90
23681;DHT22;62915;50.832;4.462;2022-09-13T03:49:14;20.80;99.90
23681;DHT22;62915;50.832;4.462;2022-09-13T03:51:44;20.80;99.90
23681;DHT22;62915;50.832;4.462;2022-09-13T03:54:22;20.80;99.90
23681;DHT22;62915;50.832;4.462;2022-09-13T03:57:24;20.80;99.90
23681;DHT22;62915;50.832;4.462;2022-09-13T03:59:53;20.80;99.90
23681;DHT22;62915;50.832;4.462;2022-09-13T04:02:21;20.70;99.90
23681;DHT22;62915;50.832;4.462;2022-09-13T04:04:48;20.80;99.90
23681;DHT22;62915;50.832;4.462;2022-09-13T04:07:22;20.80;99.90
23681;DHT22;62915;50.832;4.462;2022-09-13T04:09:48;20.70;99.90
23681;DHT22;62915;50.832;4.462;2022-09-13T04:12:15;20.60;99.90
23681;DHT22;62915;50.832;4.462;2022-09-13T04:14:42;20.60;99.90
23681;DHT22;62915;50.832;4.462;2022-09-13T04:17:13;20.60;99.90
23681;DHT22;62915;50.832;4.462;2022-09-13T04:19:39;20.50;99.90
23681;DHT22;62915;50.832;4.462;2022-09-13T04:22:05;20.50;99.90
23681;DHT22;62915;50.832;4.462;2022-09-13T04:24:31;20.40;99.90
23681;DHT22;62915;50.832;4.462;2022-09-13T04:26:57;20.50;99.90
23681;DHT22;62915;50.832;4.462;2022-09-13T04:29:25;20.50;99.90
23681;DHT22;62915;50.832;4.462;2022-09-13T04:31:52;20.50;99.90
23681;DHT22;62915;50.832;4.462;2022-09-13T04:34:18;20.50;99.90
23681;DHT22;62915;50.832;4.462;2022-09-13T04:36:46;20.60;99.90
23681;DHT22;62915;50.832;4.462;2022-09-13T04:39:13;20.60;99.90
23681;DHT22;62915;50.832;4.462;2022-09-13T04:41:43;20.60;99.90
23681;DHT22;62915;50.832;4.462;2022-09-13T04:44:11;20.60;99.90
23681;DHT22;62915;50.832;4.462;2022-09-13T04:46:37;20.50;99.90
23681;DHT22;62915;50.832;4.462;2022-09-13T04:49:03;20.50;99.90
23681;DHT22;62915;50.832;4.462;2022-09-13T04:51:29;20.50;99.90
23681;DHT22;62915;50.832;4.462;2022-09-13T04:53:55;20.50;99.90
23681;DHT22;62915;50.832;4.462;2022-09-13T04:56:23;20.50;99.90
23681;DHT22;62915;50.832;4.462;2022-09-13T04:58:53;20.40;99.90
23681;DHT22;62915;50.832;4.462;2022-09-13T05:01:20;20.40;99.90
23681;DHT22;62915;50.832;4.462;2022-09-13T05:03:46;20.40;99.90
23681;DHT22;62915;50.832;4.462;2022-09-13T05:06:14;20.40;99.90
23681;DHT22;62915;50.832;4.462;2022-09-13T05:08:44;20.40;99.90
23681;DHT22;62915;50.832;4.462;2022-09-13T05:11:14;20.40;99.90
23681;DHT22;62915;50.832;4.462;2022-09-13T05:13:39;20.40;99.90
23681;DHT22;62915;50.832;4.462;2022-09-13T05:16:06;20.50;99.90
23681;DHT22;62915;50.832;4.462;2022-09-13T05:18:34;20.50;99.90
23681;DHT22;62915;50.832;4.462;2022-09-13T05:21:02;20.50;99.90
23681;DHT22;62915;50.832;4.462;2022-09-13T05:23:29;20.50;99.90
23681;DHT22;62915;50.832;4.462;2022-09-13T05:26:00;20.50;99.90
23681;DHT22;62915;50.832;4.462;2022-09-13T05:28:30;20.50;99.90
23681;DHT22;62915;50.832;4.462;2022-09-13T05:31:07;20.50;99.90
23681;DHT22;62915;50.832;4.462;2022-09-13T05:33:37;20.40;99.90
23681;DHT22;62915;50.832;4.462;2022-09-13T05:36:04;20.50;99.90
23681;DHT22;62915;50.832;4.462;2022-09-13T05:38:31;20.50;99.90
23681;DHT22;62915;50.832;4.462;2022-09-13T05:40:58;20.50;99.90
23681;DHT22;62915;50.832;4.462;2022-09-13T05:43:25;20.50;99.90
23681;DHT22;62915;50.832;4.462;2022-09-13T05:46:03;20.50;99.90
23681;DHT22;62915;50.832;4.462;2022-09-13T05:48:30;20.50;99.90
23681;DHT22;62915;50.832;4.462;2022-09-13T05:50:56;20.40;99.90
23681;DHT22;62915;50.832;4.462;2022-09-13T05:53:28;20.40;99.90
23681;DHT22;62915;50.832;4.462;2022-09-13T05:55:53;20.40;99.90
23681;DHT22;62915;50.832;4.462;2022-09-13T05:58:19;20.40;99.90
23681;DHT22;62915;50.832;4.462;2022-09-13T06:00:52;20.40;99.90
23681;DHT22;62915;50.832;4.462;2022-09-13T06:03:21;20.50;99.90
23681;DHT22;62915;50.832;4.462;2022-09-13T06:05:47;20.50;99.90
23681;DHT22;62915;50.832;4.462;2022-09-13T06:08:13;20.50;99.90
23681;DHT22;62915;50.832;4.462;2022-09-13T06:10:39;20.50;99.90
23681;DHT22;62915;50.832;4.462;2022-09-13T06:13:08;20.50;99.90
23681;DHT22;62915;50.832;4.462;2022-09-13T06:15:33;20.50;99.90
23681;DHT22;62915;50.832;4.462;2022-09-13T06:17:59;20.50;99.90
23681;DHT22;62915;50.832;4.462;2022-09-13T06:20:26;20.50;99.90
23681;DHT22;62915;50.832;4.462;2022-09-13T06:22:52;20.50;99.90
23681;DHT22;62915;50.832;4.462;2022-09-13T06:25:17;20.50;99.90
23681;DHT22;62915;50.832;4.462;2022-09-13T06:27:43;20.50;99.90
23681;DHT22;62915;50.832;4.462;2022-09-13T06:30:09;20.50;99.90
23681;DHT22;62915;50.832;4.462;2022-09-13T06:32:37;20.60;99.90
23681;DHT22;62915;50.832;4.462;2022-09-13T06:35:03;20.60;99.90
23681;DHT22;62915;50.832;4.462;2022-09-13T06:37:29;20.60;99.90
23681;DHT22;62915;50.832;4.462;2022-09-13T06:39:54;20.60;99.90
23681;DHT22;62915;50.832;4.462;2022-09-13T06:42:21;20.60;99.90
23681;DHT22;62915;50.832;4.462;2022-09-13T06:44:46;20.70;99.90
23681;DHT22;62915;50.832;4.462;2022-09-13T06:47:13;20.70;99.90
23681;DHT22;62915;50.832;4.462;2022-09-13T06:49:38;20.70;99.90
23681;DHT22;62915;50.832;4.462;2022-09-13T06:52:04;20.70;99.90
23681;DHT22;62915;50.832;4.462;2022-09-13T06:54:30;20.80;99.90
23681;DHT22;62915;50.832;4.462;2022-09-13T06:56:56;20.80;99.90
23681;DHT22;62915;50.832;4.462;2022-09-13T06:59:22;20.80;99.90
23681;DHT22;62915;50.832;4.462;2022-09-13T07:01:48;20.90;99.90
23681;DHT22;62915;50.832;4.462;2022-09-13T07:04:15;20.90;99.90
23681;DHT22;62915;50.832;4.462;2022-09-13T07:06:45;20.90;99.90
23681;DHT22;62915;50.832;4.462;2022-09-13T07:09:17;21.00;99.90
23681;DHT22;62915;50.832;4.462;2022-09-13T07:11:44;21.00;99.90
23681;DHT22;62915;50.832;4.462;2022-09-13T07:14:22;21.00;99.90
23681;DHT22;62915;50.832;4.462;2022-09-13T07:16:49;21.10;99.90
23681;DHT22;62915;50.832;4.462;2022-09-13T07:19:21;21.10;99.90
23681;DHT22;62915;50.832;4.462;2022-09-13T07:21:48;21.10;99.90
23681;DHT22;62915;50.832;4.462;2022-09-13T07:24:15;21.10;99.90
23681;DHT22;62915;50.832;4.462;2022-09-13T07:26:41;21.10;99.90
23681;DHT22;62915;50.832;4.462;2022-09-13T07:29:10;21.20;99.90
23681;DHT22;62915;50.832;4.462;2022-09-13T07:31:42;21.30;99.90
23681;DHT22;62915;50.832;4.462;2022-09-13T07:34:13;21.30;99.90
23681;DHT22;62915;50.832;4.462;2022-09-13T07:36:40;21.30;99.90
23681;DHT22;62915;50.832;4.462;2022-09-13T07:39:06;21.40;99.90
23681;DHT22;62915;50.832;4.462;2022-09-13T07:41:33;21.50;99.90
23681;DHT22;62915;50.832;4.462;2022-09-13T07:44:00;21.50;99.90
23681;DHT22;62915;50.832;4.462;2022-09-13T07:46:28;21.60;99.90
23681;DHT22;62915;50.832;4.462;2022-09-13T07:48:57;21.60;99.90
23681;DHT22;62915;50.832;4.462;2022-09-13T07:51:29;21.60;99.90
23681;DHT22;62915;50.832;4.462;2022-09-13T07:53:57;21.70;99.90
23681;DHT22;62915;50.832;4.462;2022-09-13T07:56:25;21.60;99.90
23681;DHT22;62915;50.832;4.462;2022-09-13T07:58:52;21.60;99.90
23681;DHT22;62915;50.832;4.462;2022-09-13T08:01:20;21.60;99.90
23681;DHT22;62915;50.832;4.462;2022-09-13T08:03:58;21.70;99.90
23681;DHT22;62915;50.832;4.462;2022-09-13T08:06:26;21.80;99.90
23681;DHT22;62915;50.832;4.462;2022-09-13T08:08:52;21.90;99.90
23681;DHT22;62915;50.832;4.462;2022-09-13T08:11:23;22.00;99.90
23681;DHT22;62915;50.832;4.462;2022-09-13T08:13:50;22.00;99.90
23681;DHT22;62915;50.832;4.462;2022-09-13T08:16:19;22.20;99.90
23681;DHT22;62915;50.832;4.462;2022-09-13T08:18:48;22.20;99.90
23681;DHT22;62915;50.832;4.462;2022-09-13T08:21:14;22.30;99.90
23681;DHT22;62915;50.832;4.462;2022-09-13T08:23:41;22.30;99.90
23681;DHT22;62915;50.832;4.462;2022-09-13T08:26:07;22.30;99.90
23681;DHT22;62915;50.832;4.462;2022-09-13T08:28:34;22.40;99.90
23681;DHT22;62915;50.832;4.462;2022-09-13T08:31:12;22.40;99.90
23681;DHT22;62915;50.832;4.462;2022-09-13T08:33:46;22.50;99.90
23681;DHT22;62915;50.832;4.462;2022-09-13T08:36:14;22.50;99.90
23681;DHT22;62915;50.832;4.462;2022-09-13T08:38:54;22.50;99.90
23681;DHT22;62915;50.832;4.462;2022-09-13T08:44:07;22.60;99.90
23681;DHT22;62915;50.832;4.462;2022-09-13T08:49:07;22.80;99.90
23681;DHT22;62915;50.832;4.462;2022-09-13T08:51:47;22.80;99.90
23681;DHT22;62915;50.832;4.462;2022-09-13T08:54:14;22.90;99.90
23681;DHT22;62915;50.832;4.462;2022-09-13T08:57:10;22.90;99.90
23681;DHT22;62915;50.832;4.462;2022-09-13T09:00:17;23.00;99.90
23681;DHT22;62915;50.832;4.462;2022-09-13T09:05:21;23.10;99.90
23681;DHT22;62915;50.832;4.462;2022-09-13T09:08:05;23.20;99.90
23681;DHT22;62915;50.832;4.462;2022-09-13T09:10:44;23.20;99.90
23681;DHT22;62915;50.832;4.462;2022-09-13T09:13:31;23.20;99.90
23681;DHT22;62915;50.832;4.462;2022-09-13T09:16:31;23.30;99.90
23681;DHT22;62915;50.832;4.462;2022-09-13T09:19:06;23.40;99.90
23681;DHT22;62915;50.832;4.462;2022-09-13T09:21:34;23.40;99.90
23681;DHT22;62915;50.832;4.462;2022-09-13T09:24:02;23.50;99.90
23681;DHT22;62915;50.832;4.462;2022-09-13T09:26:29;23.60;99.90
23681;DHT22;62915;50.832;4.462;2022-09-13T09:29:08;23.80;99.90
23681;DHT22;62915;50.832;4.462;2022-09-13T09:37:24;24.30;99.90
23681;DHT22;62915;50.832;4.462;2022-09-13T09:40:12;24.40;99.90
23681;DHT22;62915;50.832;4.462;2022-09-13T09:42:46;24.50;99.90
23681;DHT22;62915;50.832;4.462;2022-09-13T09:45:30;24.60;99.90
23681;DHT22;62915;50.832;4.462;2022-09-13T09:48:01;24.60;99.90
23681;DHT22;62915;50.832;4.462;2022-09-13T09:50:32;24.50;99.90
23681;DHT22;62915;50.832;4.462;2022-09-13T09:55:42;24.70;99.90
23681;DHT22;62915;50.832;4.462;2022-09-13T09:58:11;24.80;99.90
23681;DHT22;62915;50.832;4.462;2022-09-13T10:00:55;24.80;99.90
23681;DHT22;62915;50.832;4.462;2022-09-13T10:03:28;24.70;99.90
23681;DHT22;62915;50.832;4.462;2022-09-13T10:06:12;24.60;99.90
23681;DHT22;62915;50.832;4.462;2022-09-13T10:08:43;24.50;99.90
23681;DHT22;62915;50.832;4.462;2022-09-13T10:11:12;24.50;99.90
23681;DHT22;62915;50.832;4.462;2022-09-13T10:13:38;24.40;99.90
23681;DHT22;62915;50.832;4.462;2022-09-13T10:16:29;24.50;99.90
23681;DHT22;62915;50.832;4.462;2022-09-13T10:19:25;24.50;99.90
23681;DHT22;62915;50.832;4.462;2022-09-13T10:22:02;24.50;99.90
23681;DHT22;62915;50.832;4.462;2022-09-13T10:24:28;24.60;99.90
23681;DHT22;62915;50.832;4.462;2022-09-13T10:26:55;24.60;99.90
23681;DHT22;62915;50.832;4.462;2022-09-13T10:29:22;24.70;99.90
23681;DHT22;62915;50.832;4.462;2022-09-13T10:31:50;24.70;99.90
23681;DHT22;62915;50.832;4.462;2022-09-13T10:34:26;24.70;99.90
23681;DHT22;62915;50.832;4.462;2022-09-13T10:37:13;24.70;99.90
23681;DHT22;62915;50.832;4.462;2022-09-13T10:39:56;24.60;99.90
23681;DHT22;62915;50.832;4.462;2022-09-13T10:42:25;24.70;99.90
23681;DHT22;62915;50.832;4.462;2022-09-13T10:45:00;24.70;99.90
23681;DHT22;62915;50.832;4.462;2022-09-13T10:47:44;24.70;99.90
23681;DHT22;62915;50.832;4.462;2022-09-13T10:50:25;24.50;99.90
23681;DHT22;62915;50.832;4.462;2022-09-13T10:52:58;24.50;99.90
23681;DHT22;62915;50.832;4.462;2022-09-13T10:55:26;24.50;99.90
23681;DHT22;62915;50.832;4.462;2022-09-13T10:58:14;24.50;99.90
23681;DHT22;62915;50.832;4.462;2022-09-13T11:09:54;24.50;99.90
23681;DHT22;62915;50.832;4.462;2022-09-13T11:12:30;24.50;99.90
23681;DHT22;62915;50.832;4.462;2022-09-13T11:15:33;24.50;99.90
23681;DHT22;62915;50.832;4.462;2022-09-13T11:21:11;24.60;99.90
23681;DHT22;62915;50.832;4.462;2022-09-13T11:26:38;24.70;99.90
23681;DHT22;62915;50.832;4.462;2022-09-13T11:29:32;24.60;99.90
23681;DHT22;62915;50.832;4.462;2022-09-13T11:40:39;24.70;99.90
23681;DHT22;62915;50.832;4.462;2022-09-13T11:56:41;24.60;99.90
23681;DHT22;62915;50.832;4.462;2022-09-13T12:02:00;24.60;99.90
23681;DHT22;62915;50.832;4.462;2022-09-13T12:04:36;24.70;99.90
23681;DHT22;62915;50.832;4.462;2022-09-13T12:07:10;24.70;99.90
23681;DHT22;62915;50.832;4.462;2022-09-13T12:09:47;24.70;99.90
23681;DHT22;62915;50.832;4.462;2022-09-13T12:12:16;24.70;99.90
23681;DHT22;62915;50.832;4.462;2022-09-13T12:14:51;24.60;99.90
23681;DHT22;62915;50.832;4.462;2022-09-13T12:17:28;24.60;99.90
23681;DHT22;62915;50.832;4.462;2022-09-13T12:19:57;24.60;99.90
23681;DHT22;62915;50.832;4.462;2022-09-13T12:22:28;24.60;99.90
23681;DHT22;62915;50.832;4.462;2022-09-13T12:25:01;24.70;99.90
23681;DHT22;62915;50.832;4.462;2022-09-13T12:28:23;24.70;99.90
23681;DHT22;62915;50.832;4.462;2022-09-13T12:30:41;24.70;99.90
23681;DHT22;62915;50.832;4.462;2022-09-13T12:33:13;24.70;99.90
23681;DHT22;62915;50.832;4.462;2022-09-13T12:53:00;24.50;99.90
23681;DHT22;62915;50.832;4.462;2022-09-13T13:01:16;24.50;99.90
23681;DHT22;62915;50.832;4.462;2022-09-13T13:06:38;24.60;99.90
23681;DHT22;62915;50.832;4.462;2022-09-13T13:09:41;24.60;99.90
23681;DHT22;62915;50.832;4.462;2022-09-13T13:12:12;24.60;99.90
23681;DHT22;62915;50.832;4.462;2022-09-13T13:14:49;24.50;99.90
23681;DHT22;62915;50.832;4.462;2022-09-13T13:17:53;24.50;99.90
23681;DHT22;62915;50.832;4.462;2022-09-13T13:26:01;24.50;99.90
23681;DHT22;62915;50.832;4.462;2022-09-13T13:49:51;24.40;99.90
23681;DHT22;62915;50.832;4.462;2022-09-13T13:54:58;24.50;99.90
23681;DHT22;62915;50.832;4.462;2022-09-13T13:57:56;24.40;99.90
23681;DHT22;62915;50.832;4.462;2022-09-13T14:00:27;24.40;99.90
23681;DHT22;62915;50.832;4.462;2022-09-13T14:20:04;24.00;99.90
23681;DHT22;62915;50.832;4.462;2022-09-13T14:22:32;23.90;99.90
23681;DHT22;62915;50.832;4.462;2022-09-13T14:27:39;24.00;99.90
23681;DHT22;62915;50.832;4.462;2022-09-13T14:30:22;23.90;99.90
23681;DHT22;62915;50.832;4.462;2022-09-13T14:32:53;23.90;99.90
23681;DHT22;62915;50.832;4.462;2022-09-13T14:35:34;23.90;99.90
23681;DHT22;62915;50.832;4.462;2022-09-13T14:38:21;23.90;99.90
23681;DHT22;62915;50.832;4.462;2022-09-13T14:40:49;23.80;99.90
23681;DHT22;62915;50.832;4.462;2022-09-13T14:43:17;23.80;99.90
23681;DHT22;62915;50.832;4.462;2022-09-13T14:45:46;23.70;99.90
23681;DHT22;62915;50.832;4.462;2022-09-13T14:48:21;23.70;99.90
23681;DHT22;62915;50.832;4.462;2022-09-13T14:50:58;23.60;99.90
23681;DHT22;62915;50.832;4.462;2022-09-13T14:53:26;23.60;99.90
23681;DHT22;62915;50.832;4.462;2022-09-13T14:55:56;23.60;99.90
23681;DHT22;62915;50.832;4.462;2022-09-13T14:58:43;23.60;99.90
23681;DHT22;62915;50.832;4.462;2022-09-13T15:01:13;23.70;99.90
23681;DHT22;62915;50.832;4.462;2022-09-13T15:03:42;23.70;99.90
23681;DHT22;62915;50.832;4.462;2022-09-13T15:06:22;23.80;99.90
23681;DHT22;62915;50.832;4.462;2022-09-13T15:08:49;23.80;99.90
23681;DHT22;62915;50.832;4.462;2022-09-13T15:11:35;23.70;99.90
23681;DHT22;62915;50.832;4.462;2022-09-13T15:16:50;23.70;99.90
23681;DHT22;62915;50.832;4.462;2022-09-13T15:21:47;23.70;99.90
23681;DHT22;62915;50.832;4.462;2022-09-13T15:24:30;23.70;99.90
23681;DHT22;62915;50.832;4.462;2022-09-13T15:27:15;23.80;99.90
23681;DHT22;62915;50.832;4.462;2022-09-13T15:29:50;23.80;99.90
23681;DHT22;62915;50.832;4.462;2022-09-13T15:32:22;23.60;99.90
23681;DHT22;62915;50.832;4.462;2022-09-13T15:34:48;23.60;99.90
23681;DHT22;62915;50.832;4.462;2022-09-13T15:37:14;23.70;99.90
23681;DHT22;62915;50.832;4.462;2022-09-13T15:39:49;23.70;99.90
23681;DHT22;62915;50.832;4.462;2022-09-13T15:42:17;23.70;99.90
23681;DHT22;62915;50.832;4.462;2022-09-13T15:44:42;23.70;99.90
23681;DHT22;62915;50.832;4.462;2022-09-13T15:47:12;23.70;99.90
23681;DHT22;62915;50.832;4.462;2022-09-13T15:49:50;23.70;99.90
23681;DHT22;62915;50.832;4.462;2022-09-13T15:52:17;23.70;99.90
23681;DHT22;62915;50.832;4.462;2022-09-13T15:54:48;23.70;99.90
23681;DHT22;62915;50.832;4.462;2022-09-13T15:57:25;23.70;99.90
23681;DHT22;62915;50.832;4.462;2022-09-13T15:59:52;23.70;99.90
23681;DHT22;62915;50.832;4.462;2022-09-13T16:02:20;23.70;99.90
23681;DHT22;62915;50.832;4.462;2022-09-13T16:04:56;23.70;99.90
23681;DHT22;62915;50.832;4.462;2022-09-13T16:07:26;23.70;99.90
23681;DHT22;62915;50.832;4.462;2022-09-13T16:09:53;23.70;99.90
23681;DHT22;62915;50.832;4.462;2022-09-13T16:12:19;23.70;99.90
23681;DHT22;62915;50.832;4.462;2022-09-13T16:14:47;23.70;99.90
23681;DHT22;62915;50.832;4.462;2022-09-13T16:17:23;23.70;99.90
23681;DHT22;62915;50.832;4.462;2022-09-13T16:19:49;23.70;99.90
23681;DHT22;62915;50.832;4.462;2022-09-13T16:22:16;23.70;99.90
23681;DHT22;62915;50.832;4.462;2022-09-13T16:24:46;23.60;99.90
23681;DHT22;62915;50.832;4.462;2022-09-13T16:27:14;23.70;99.90
23681;DHT22;62915;50.832;4.462;2022-09-13T16:29:40;23.60;99.90
23681;DHT22;62915;50.832;4.462;2022-09-13T16:32:06;23.60;99.90
23681;DHT22;62915;50.832;4.462;2022-09-13T16:34:33;23.60;99.90
23681;DHT22;62915;50.832;4.462;2022-09-13T16:36:59;23.60;99.90
23681;DHT22;62915;50.832;4.462;2022-09-13T16:39:28;23.60;99.90
23681;DHT22;62915;50.832;4.462;2022-09-13T16:41:58;23.60;99.90
23681;DHT22;62915;50.832;4.462;2022-09-13T16:44:24;23.50;99.90
23681;DHT22;62915;50.832;4.462;2022-09-13T16:46:55;23.40;99.90
23681;DHT22;62915;50.832;4.462;2022-09-13T16:49:23;23.40;99.90
23681;DHT22;62915;50.832;4.462;2022-09-13T16:51:52;23.30;99.90
23681;DHT22;62915;50.832;4.462;2022-09-13T16:54:17;23.30;99.90
23681;DHT22;62915;50.832;4.462;2022-09-13T16:56:46;23.20;99.90
23681;DHT22;62915;50.832;4.462;2022-09-13T17:02:27;23.20;99.90
23681;DHT22;62915;50.832;4.462;2022-09-13T17:08:21;23.00;99.90
23681;DHT22;62915;50.832;4.462;2022-09-13T17:10:46;22.90;99.90
23681;DHT22;62915;50.832;4.462;2022-09-13T17:13:12;22.90;99.90
23681;DHT22;62915;50.832;4.462;2022-09-13T17:15:38;22.80;99.90
23681;DHT22;62915;50.832;4.462;2022-09-13T17:18:07;22.70;99.90
23681;DHT22;62915;50.832;4.462;2022-09-13T17:20:45;22.70;99.90
23681;DHT22;62915;50.832;4.462;2022-09-13T17:23:20;22.60;99.90
23681;DHT22;62915;50.832;4.462;2022-09-13T17:25:47;22.50;99.90
23681;DHT22;62915;50.832;4.462;2022-09-13T17:28:16;22.40;99.90
23681;DHT22;62915;50.832;4.462;2022-09-13T17:30:42;22.40;99.90
23681;DHT22;62915;50.832;4.462;2022-09-13T17:33:09;22.40;99.90
23681;DHT22;62915;50.832;4.462;2022-09-13T17:35:35;22.30;99.90
23681;DHT22;62915;50.832;4.462;2022-09-13T17:38:01;22.30;99.90
23681;DHT22;62915;50.832;4.462;2022-09-13T17:40:28;22.40;99.90
23681;DHT22;62915;50.832;4.462;2022-09-13T17:42:55;22.40;99.90
23681;DHT22;62915;50.832;4.462;2022-09-13T17:45:21;22.40;99.90
23681;DHT22;62915;50.832;4.462;2022-09-13T17:47:47;22.30;99.90
23681;DHT22;62915;50.832;4.462;2022-09-13T17:50:13;22.30;99.90
23681;DHT22;62915;50.832;4.462;2022-09-13T17:52:39;22.30;99.90
23681;DHT22;62915;50.832;4.462;2022-09-13T17:55:05;22.20;99.90
23681;DHT22;62915;50.832;4.462;2022-09-13T17:57:31;22.30;99.90
23681;DHT22;62915;50.832;4.462;2022-09-13T17:59:57;22.20;99.90
23681;DHT22;62915;50.832;4.462;2022-09-13T18:02:23;22.20;99.90
23681;DHT22;62915;50.832;4.462;2022-09-13T18:04:50;22.20;99.90
23681;DHT22;62915;50.832;4.462;2022-09-13T18:07:16;22.20;99.90
23681;DHT22;62915;50.832;4.462;2022-09-13T18:09:42;22.20;99.90
23681;DHT22;62915;50.832;4.462;2022-09-13T18:12:09;22.10;99.90
23681;DHT22;62915;50.832;4.462;2022-09-13T18:14:36;22.10;99.90
23681;DHT22;62915;50.832;4.462;2022-09-13T18:17:02;22.10;99.90
23681;DHT22;62915;50.832;4.462;2022-09-13T18:19:35;22.10;99.90
23681;DHT22;62915;50.832;4.462;2022-09-13T18:22:01;22.20;99.90
23681;DHT22;62915;50.832;4.462;2022-09-13T18:24:27;22.10;99.90
23681;DHT22;62915;50.832;4.462;2022-09-13T18:26:52;22.10;99.90
23681;DHT22;62915;50.832;4.462;2022-09-13T18:29:18;22.10;99.90
23681;DHT22;62915;50.832;4.462;2022-09-13T18:31:43;22.10;99.90
23681;DHT22;62915;50.832;4.462;2022-09-13T18:34:12;22.10;99.90
23681;DHT22;62915;50.832;4.462;2022-09-13T18:36:39;22.10;99.90
23681;DHT22;62915;50.832;4.462;2022-09-13T18:39:06;22.00;99.90
23681;DHT22;62915;50.832;4.462;2022-09-13T18:41:34;21.90;99.90
23681;DHT22;62915;50.832;4.462;2022-09-13T18:44:01;21.90;99.90
23681;DHT22;62915;50.832;4.462;2022-09-13T18:46:29;21.90;99.90
23681;DHT22;62915;50.832;4.462;2022-09-13T18:48:56;21.80;99.90
23681;DHT22;62915;50.832;4.462;2022-09-13T18:51:28;21.80;99.90
23681;DHT22;62915;50.832;4.462;2022-09-13T18:54:07;21.90;99.90
23681;DHT22;62915;50.832;4.462;2022-09-13T18:56:34;21.80;99.90
23681;DHT22;62915;50.832;4.462;2022-09-13T18:59:02;21.80;99.90
23681;DHT22;62915;50.832;4.462;2022-09-13T19:01:35;21.80;99.90
23681;DHT22;62915;50.832;4.462;2022-09-13T19:04:27;21.80;99.90